sensor_id;sensor_type;location;lat;lon;timestamp;pressure;altitude;pressure_sealevel;temperature;humidity
36284;BME280;56085;48.910;9.478;2022-12-18T00:01:01;99327.13;;;-10.55;85.32
36284;BME280;56085;48.910;9.478;2022-12-18T00:03:30;99324.06;;;-10.51;85.58
36284;BME280;56085;48.910;9.478;2022-12-18T00:05:56;99324.03;;;-10.58;86.13
36284;BME280;56085;48.910;9.478;2022-12-18T00:08:21;99327.84;;;-10.74;86.12
36284;BME280;56085;48.910;9.478;2022-12-18T00:10:46;99329.88;;;-10.83;84.99
36284;BME280;56085;48.910;9.478;2022-12-18T00:13:11;99334.00;;;-10.80;84.10
36284;BME280;56085;48.910;9.478;2022-12-18T00:15:38;99332.97;;;-10.79;84.09
36284;BME280;56085;48.910;9.478;2022-12-18T00:18:03;99339.38;;;-10.74;83.62
36284;BME280;56085;48.910;9.478;2022-12-18T00:20:28;99337.50;;;-10.73;83.23
36284;BME280;56085;48.910;9.478;2022-12-18T00:22:54;99343.91;;;-10.74;83.42
36284;BME280;56085;48.910;9.478;2022-12-18T00:25:19;99331.75;;;-10.77;82.72
36284;BME280;56085;48.910;9.478;2022-12-18T00:27:44;99338.09;;;-10.84;82.39
36284;BME280;56085;48.910;9.478;2022-12-18T00:30:10;99330.88;;;-10.84;82.59
36284;BME280;56085;48.910;9.478;2022-12-18T00:32:35;99335.16;;;-10.90;81.66
36284;BME280;56085;48.910;9.478;2022-12-18T00:35:00;99333.69;;;-10.92;81.87
36284;BME280;56085;48.910;9.478;2022-12-18T00:37:26;99328.34;;;-10.92;81.96
36284;BME280;56085;48.910;9.478;2022-12-18T00:39:51;99331.22;;;-10.94;82.31
36284;BME280;56085;48.910;9.478;2022-12-18T00:42:16;99333.47;;;-10.97;82.26
36284;BME280;56085;48.910;9.478;2022-12-18T00:45:00;99334.69;;;-11.00;81.90
36284;BME280;56085;48.910;9.478;2022-12-18T00:47:25;99334.47;;;-11.05;82.00
36284;BME280;56085;48.910;9.478;2022-12-18T00:49:50;99339.16;;;-11.07;82.44
36284;BME280;56085;48.910;9.478;2022-12-18T00:52:15;99338.53;;;-11.09;81.79
36284;BME280;56085;48.910;9.478;2022-12-18T00:54:41;99338.53;;;-11.09;82.53
36284;BME280;56085;48.910;9.478;2022-12-18T00:57:06;99341.84;;;-11.35;81.21
36284;BME280;56085;48.910;9.478;2022-12-18T00:59:31;99331.09;;;-11.42;81.09
36284;BME280;56085;48.910;9.478;2022-12-18T01:01:56;99322.13;;;-11.34;80.14
36284;BME280;56085;48.910;9.478;2022-12-18T01:04:21;99317.59;;;-11.34;80.89
36284;BME280;56085;48.910;9.478;2022-12-18T01:06:47;99334.44;;;-11.33;80.30
36284;BME280;56085;48.910;9.478;2022-12-18T01:09:12;99345.50;;;-11.36;80.99
36284;BME280;56085;48.910;9.478;2022-12-18T01:11:37;99346.47;;;-11.44;80.57
36284;BME280;56085;48.910;9.478;2022-12-18T01:14:02;99339.69;;;-11.47;80.78
36284;BME280;56085;48.910;9.478;2022-12-18T01:16:28;99338.91;;;-11.41;80.91
36284;BME280;56085;48.910;9.478;2022-12-18T01:18:53;99340.38;;;-11.38;80.93
36284;BME280;56085;48.910;9.478;2022-12-18T01:21:19;99335.47;;;-11.34;81.92
36284;BME280;56085;48.910;9.478;2022-12-18T01:23:44;99336.09;;;-11.32;82.57
36284;BME280;56085;48.910;9.478;2022-12-18T01:26:11;99341.19;;;-11.37;82.92
36284;BME280;56085;48.910;9.478;2022-12-18T01:28:36;99350.44;;;-11.40;82.70
36284;BME280;56085;48.910;9.478;2022-12-18T01:31:22;99349.78;;;-11.42;82.73
36284;BME280;56085;48.910;9.478;2022-12-18T01:33:48;99353.09;;;-11.40;82.80
36284;BME280;56085;48.910;9.478;2022-12-18T01:36:20;99359.69;;;-11.36;81.96
36284;BME280;56085;48.910;9.478;2022-12-18T01:38:46;99357.75;;;-11.49;82.35
36284;BME280;56085;48.910;9.478;2022-12-18T01:41:11;99372.91;;;-11.49;82.12
36284;BME280;56085;48.910;9.478;2022-12-18T01:43:47;99365.75;;;-11.49;82.43
36284;BME280;56085;48.910;9.478;2022-12-18T01:46:13;99356.31;;;-11.45;82.38
36284;BME280;56085;48.910;9.478;2022-12-18T01:48:39;99355.97;;;-11.42;82.35
36284;BME280;56085;48.910;9.478;2022-12-18T01:51:05;99354.53;;;-11.37;82.63
36284;BME280;56085;48.910;9.478;2022-12-18T01:53:31;99352.31;;;-11.34;82.86
36284;BME280;56085;48.910;9.478;2022-12-18T01:55:56;99345.56;;;-11.30;82.98
36284;BME280;56085;48.910;9.478;2022-12-18T01:59:07;99348.66;;;-11.26;83.14
36284;BME280;56085;48.910;9.478;2022-12-18T02:01:07;99355.28;;;-11.22;83.08
36284;BME280;56085;48.910;9.478;2022-12-18T02:03:33;99350.94;;;-11.23;83.17
36284;BME280;56085;48.910;9.478;2022-12-18T02:08:31;99342.34;;;-11.18;83.95
36284;BME280;56085;48.910;9.478;2022-12-18T02:11:18;99349.34;;;-11.17;83.59
36284;BME280;56085;48.910;9.478;2022-12-18T02:14:04;99348.97;;;-11.43;83.36
36284;BME280;56085;48.910;9.478;2022-12-18T02:26:40;99363.22;;;-11.29;81.79
36284;BME280;56085;48.910;9.478;2022-12-18T02:29:08;99367.75;;;-11.29;81.66
36284;BME280;56085;48.910;9.478;2022-12-18T02:31:51;99368.81;;;-11.24;81.82
36284;BME280;56085;48.910;9.478;2022-12-18T02:34:17;99365.00;;;-11.36;81.92
36284;BME280;56085;48.910;9.478;2022-12-18T02:36:43;99363.19;;;-11.35;81.70
36284;BME280;56085;48.910;9.478;2022-12-18T02:39:11;99366.66;;;-11.35;80.96
36284;BME280;56085;48.910;9.478;2022-12-18T02:41:37;99348.25;;;-11.30;81.17
36284;BME280;56085;48.910;9.478;2022-12-18T02:44:07;99351.53;;;-11.28;81.43
36284;BME280;56085;48.910;9.478;2022-12-18T02:46:33;99349.13;;;-11.23;81.52
36284;BME280;56085;48.910;9.478;2022-12-18T02:49:08;99363.28;;;-11.22;81.41
36284;BME280;56085;48.910;9.478;2022-12-18T02:51:45;99374.75;;;-11.28;81.23
36284;BME280;56085;48.910;9.478;2022-12-18T02:56:49;99375.06;;;-11.38;81.54
36284;BME280;56085;48.910;9.478;2022-12-18T02:59:19;99355.22;;;-11.29;81.36
36284;BME280;56085;48.910;9.478;2022-12-18T03:01:53;99377.47;;;-11.21;81.64
36284;BME280;56085;48.910;9.478;2022-12-18T03:04:26;99392.75;;;-11.37;81.38
36284;BME280;56085;48.910;9.478;2022-12-18T03:06:54;99390.97;;;-11.73;80.17
36284;BME280;56085;48.910;9.478;2022-12-18T03:09:21;99392.53;;;-11.79;79.12
36284;BME280;56085;48.910;9.478;2022-12-18T03:11:53;99393.13;;;-11.62;79.17
36284;BME280;56085;48.910;9.478;2022-12-18T03:14:38;99384.63;;;-11.50;79.89
36284;BME280;56085;48.910;9.478;2022-12-18T03:17:05;99379.53;;;-11.45;79.96
36284;BME280;56085;48.910;9.478;2022-12-18T03:19:32;99380.34;;;-11.45;81.14
36284;BME280;56085;48.910;9.478;2022-12-18T03:21:58;99390.28;;;-11.38;81.48
36284;BME280;56085;48.910;9.478;2022-12-18T03:24:26;99379.22;;;-11.35;81.83
36284;BME280;56085;48.910;9.478;2022-12-18T03:26:54;99385.31;;;-11.42;81.89
36284;BME280;56085;48.910;9.478;2022-12-18T03:29:21;99379.63;;;-11.32;81.43
36284;BME280;56085;48.910;9.478;2022-12-18T03:31:49;99392.78;;;-11.30;82.21
36284;BME280;56085;48.910;9.478;2022-12-18T03:34:17;99383.06;;;-11.38;82.02
36284;BME280;56085;48.910;9.478;2022-12-18T03:36:44;99398.31;;;-11.32;81.47
36284;BME280;56085;48.910;9.478;2022-12-18T03:39:10;99387.16;;;-11.42;82.03
36284;BME280;56085;48.910;9.478;2022-12-18T03:44:24;99392.09;;;-11.39;81.24
36284;BME280;56085;48.910;9.478;2022-12-18T03:47:00;99411.63;;;-11.60;81.01
36284;BME280;56085;48.910;9.478;2022-12-18T03:52:20;99394.19;;;-11.78;80.74
36284;BME280;56085;48.910;9.478;2022-12-18T03:54:49;99385.53;;;-11.80;80.32
36284;BME280;56085;48.910;9.478;2022-12-18T03:57:18;99392.63;;;-11.72;80.77
36284;BME280;56085;48.910;9.478;2022-12-18T03:59:45;99383.22;;;-11.68;81.26
36284;BME280;56085;48.910;9.478;2022-12-18T04:02:12;99389.75;;;-11.70;81.97
36284;BME280;56085;48.910;9.478;2022-12-18T04:04:39;99390.72;;;-11.78;81.50
36284;BME280;56085;48.910;9.478;2022-12-18T04:07:05;99393.31;;;-11.85;81.87
36284;BME280;56085;48.910;9.478;2022-12-18T04:09:31;99389.34;;;-11.89;81.99
36284;BME280;56085;48.910;9.478;2022-12-18T04:11:57;99378.38;;;-11.79;82.31
36284;BME280;56085;48.910;9.478;2022-12-18T04:14:23;99374.75;;;-11.71;82.46
36284;BME280;56085;48.910;9.478;2022-12-18T04:16:48;99387.13;;;-11.64;83.55
36284;BME280;56085;48.910;9.478;2022-12-18T04:19:13;99391.03;;;-11.66;83.87
36284;BME280;56085;48.910;9.478;2022-12-18T04:21:38;99390.88;;;-11.80;84.03
36284;BME280;56085;48.910;9.478;2022-12-18T04:24:04;99385.09;;;-11.83;83.79
36284;BME280;56085;48.910;9.478;2022-12-18T04:26:29;99394.88;;;-11.90;83.33
36284;BME280;56085;48.910;9.478;2022-12-18T04:28:55;99396.09;;;-11.93;83.41
36284;BME280;56085;48.910;9.478;2022-12-18T04:31:20;99412.16;;;-11.86;83.21
36284;BME280;56085;48.910;9.478;2022-12-18T04:33:45;99407.22;;;-11.89;83.83
36284;BME280;56085;48.910;9.478;2022-12-18T04:36:10;99399.06;;;-11.81;83.48
36284;BME280;56085;48.910;9.478;2022-12-18T04:38:37;99398.72;;;-11.78;83.86
36284;BME280;56085;48.910;9.478;2022-12-18T04:41:02;99402.63;;;-11.74;83.93
36284;BME280;56085;48.910;9.478;2022-12-18T04:43:28;99395.88;;;-11.77;83.87
36284;BME280;56085;48.910;9.478;2022-12-18T04:45:53;99410.25;;;-11.71;84.16
36284;BME280;56085;48.910;9.478;2022-12-18T04:48:18;99408.25;;;-11.69;84.09
36284;BME280;56085;48.910;9.478;2022-12-18T04:50:45;99410.09;;;-11.69;83.92
36284;BME280;56085;48.910;9.478;2022-12-18T04:53:11;99403.53;;;-11.67;84.68
36284;BME280;56085;48.910;9.478;2022-12-18T04:55:36;99406.28;;;-11.60;84.36
36284;BME280;56085;48.910;9.478;2022-12-18T04:58:01;99418.09;;;-11.48;84.69
36284;BME280;56085;48.910;9.478;2022-12-18T05:00:27;99424.47;;;-11.49;84.94
36284;BME280;56085;48.910;9.478;2022-12-18T05:02:52;99417.84;;;-11.53;85.02
36284;BME280;56085;48.910;9.478;2022-12-18T05:05:17;99417.84;;;-11.53;85.20
36284;BME280;56085;48.910;9.478;2022-12-18T05:07:42;99415.75;;;-11.57;85.16
36284;BME280;56085;48.910;9.478;2022-12-18T05:10:08;99409.66;;;-11.51;84.80
36284;BME280;56085;48.910;9.478;2022-12-18T05:12:36;99408.25;;;-11.47;85.30
36284;BME280;56085;48.910;9.478;2022-12-18T05:15:23;99410.75;;;-11.46;85.40
36284;BME280;56085;48.910;9.478;2022-12-18T05:17:48;99411.75;;;-11.47;85.44
36284;BME280;56085;48.910;9.478;2022-12-18T05:20:13;99408.06;;;-11.46;85.13
36284;BME280;56085;48.910;9.478;2022-12-18T05:22:38;99406.22;;;-11.45;85.11
36284;BME280;56085;48.910;9.478;2022-12-18T05:25:04;99400.50;;;-11.42;85.10
36284;BME280;56085;48.910;9.478;2022-12-18T05:27:29;99409.97;;;-11.39;85.04
36284;BME280;56085;48.910;9.478;2022-12-18T05:29:54;99420.44;;;-11.38;85.62
36284;BME280;56085;48.910;9.478;2022-12-18T05:32:19;99407.72;;;-11.36;85.51
36284;BME280;56085;48.910;9.478;2022-12-18T05:34:44;99392.75;;;-11.37;85.10
36284;BME280;56085;48.910;9.478;2022-12-18T05:37:10;99395.22;;;-11.35;85.25
36284;BME280;56085;48.910;9.478;2022-12-18T05:39:35;99391.34;;;-11.33;85.35
36284;BME280;56085;48.910;9.478;2022-12-18T05:42:00;99394.44;;;-11.29;85.27
36284;BME280;56085;48.910;9.478;2022-12-18T05:44:25;99398.97;;;-11.30;85.73
36284;BME280;56085;48.910;9.478;2022-12-18T05:46:50;99398.78;;;-11.28;85.47
36284;BME280;56085;48.910;9.478;2022-12-18T05:49:16;99405.41;;;-11.24;86.10
36284;BME280;56085;48.910;9.478;2022-12-18T05:51:41;99396.16;;;-11.21;86.29
36284;BME280;56085;48.910;9.478;2022-12-18T05:54:06;99404.56;;;-11.25;86.04
36284;BME280;56085;48.910;9.478;2022-12-18T05:56:31;99400.22;;;-11.26;86.72
36284;BME280;56085;48.910;9.478;2022-12-18T05:58:56;99409.69;;;-11.23;85.93
36284;BME280;56085;48.910;9.478;2022-12-18T06:01:23;99403.53;;;-11.24;nan
36284;BME280;56085;48.910;9.478;2022-12-18T06:03:49;99422.03;;;-11.22;86.86
36284;BME280;56085;48.910;9.478;2022-12-18T06:06:19;99434.19;;;-11.19;86.12
36284;BME280;56085;48.910;9.478;2022-12-18T06:08:44;99420.63;;;-11.18;86.57
36284;BME280;56085;48.910;9.478;2022-12-18T06:11:10;99422.47;;;-11.18;86.78
36284;BME280;56085;48.910;9.478;2022-12-18T06:13:35;99414.66;;;-11.20;86.65
36284;BME280;56085;48.910;9.478;2022-12-18T06:16:06;99418.34;;;-11.21;87.02
36284;BME280;56085;48.910;9.478;2022-12-18T06:18:32;99421.03;;;-11.21;86.21
36284;BME280;56085;48.910;9.478;2022-12-18T06:20:58;99431.25;;;-11.25;86.52
36284;BME280;56085;48.910;9.478;2022-12-18T06:23:24;99419.94;;;-11.27;86.50
36284;BME280;56085;48.910;9.478;2022-12-18T06:25:49;99419.94;;;-11.27;86.35
36284;BME280;56085;48.910;9.478;2022-12-18T06:28:15;99423.63;;;-11.28;85.77
36284;BME280;56085;48.910;9.478;2022-12-18T06:30:42;99428.78;;;-11.26;85.30
36284;BME280;56085;48.910;9.478;2022-12-18T06:33:08;99426.91;;;-11.26;85.76
36284;BME280;56085;48.910;9.478;2022-12-18T06:35:33;99419.38;;;-11.22;85.64
36284;BME280;56085;48.910;9.478;2022-12-18T06:37:58;99423.69;;;-11.21;85.88
36284;BME280;56085;48.910;9.478;2022-12-18T06:40:23;99413.03;;;-11.21;85.87
36284;BME280;56085;48.910;9.478;2022-12-18T06:42:48;99419.38;;;-11.22;86.09
36284;BME280;56085;48.910;9.478;2022-12-18T06:45:13;99427.19;;;-11.20;85.69
36284;BME280;56085;48.910;9.478;2022-12-18T06:47:39;99428.84;;;-11.19;85.74
36284;BME280;56085;48.910;9.478;2022-12-18T06:50:04;99429.59;;;-11.26;85.80
36284;BME280;56085;48.910;9.478;2022-12-18T06:52:31;99432.53;;;-11.42;85.40
36284;BME280;56085;48.910;9.478;2022-12-18T06:54:56;99423.69;;;-11.43;84.98
36284;BME280;56085;48.910;9.478;2022-12-18T06:57:21;99438.50;;;-11.40;84.86
36284;BME280;56085;48.910;9.478;2022-12-18T06:59:47;99434.81;;;-11.39;85.07
36284;BME280;56085;48.910;9.478;2022-12-18T07:02:12;99442.81;;;-11.39;85.13
36284;BME280;56085;48.910;9.478;2022-12-18T07:04:37;99451.41;;;-11.44;84.51
36284;BME280;56085;48.910;9.478;2022-12-18T07:07:02;99446.53;;;-11.40;84.74
36284;BME280;56085;48.910;9.478;2022-12-18T07:09:28;99450.50;;;-11.51;84.92
36284;BME280;56085;48.910;9.478;2022-12-18T07:11:53;99458.38;;;-11.64;84.23
36284;BME280;56085;48.910;9.478;2022-12-18T07:14:18;99460.47;;;-11.60;84.40
36284;BME280;56085;48.910;9.478;2022-12-18T07:16:44;99453.94;;;-11.57;84.42
36284;BME280;56085;48.910;9.478;2022-12-18T07:19:09;99461.13;;;-11.57;84.65
36284;BME280;56085;48.910;9.478;2022-12-18T07:21:34;99459.09;;;-11.55;84.51
36284;BME280;56085;48.910;9.478;2022-12-18T07:23:59;99464.69;;;-11.50;84.52
36284;BME280;56085;48.910;9.478;2022-12-18T07:26:24;99465.03;;;-11.53;84.45
36284;BME280;56085;48.910;9.478;2022-12-18T07:28:53;99467.81;;;-11.47;84.98
36284;BME280;56085;48.910;9.478;2022-12-18T07:31:20;99470.94;;;-11.43;84.60
36284;BME280;56085;48.910;9.478;2022-12-18T07:33:46;99478.09;;;-11.44;84.92
36284;BME280;56085;48.910;9.478;2022-12-18T07:36:11;99473.03;;;-11.38;85.10
36284;BME280;56085;48.910;9.478;2022-12-18T07:38:36;99474.31;;;-11.34;85.25
36284;BME280;56085;48.910;9.478;2022-12-18T07:41:05;99474.94;;;-11.32;85.58
36284;BME280;56085;48.910;9.478;2022-12-18T07:43:31;99485.50;;;-11.24;85.52
36284;BME280;56085;48.910;9.478;2022-12-18T07:45:56;99488.34;;;-11.26;85.27
36284;BME280;56085;48.910;9.478;2022-12-18T07:48:22;99483.00;;;-11.26;85.37
36284;BME280;56085;48.910;9.478;2022-12-18T07:50:47;99489.03;;;-11.17;85.46
36284;BME280;56085;48.910;9.478;2022-12-18T07:53:12;99484.03;;;-11.05;85.83
36284;BME280;56085;48.910;9.478;2022-12-18T07:55:39;99494.34;;;-11.02;85.40
36284;BME280;56085;48.910;9.478;2022-12-18T07:58:04;99483.50;;;-10.94;85.47
36284;BME280;56085;48.910;9.478;2022-12-18T08:00:30;99490.13;;;-10.90;85.32
36284;BME280;56085;48.910;9.478;2022-12-18T08:02:55;99483.63;;;-10.80;85.44
36284;BME280;56085;48.910;9.478;2022-12-18T08:05:20;99480.00;;;-10.73;85.34
36284;BME280;56085;48.910;9.478;2022-12-18T08:07:46;99492.19;;;-10.63;85.41
36284;BME280;56085;48.910;9.478;2022-12-18T08:10:11;99495.53;;;-10.55;84.75
36284;BME280;56085;48.910;9.478;2022-12-18T08:12:38;99493.25;;;-10.58;85.15
36284;BME280;56085;48.910;9.478;2022-12-18T08:15:03;99488.97;;;-10.52;85.06
36284;BME280;56085;48.910;9.478;2022-12-18T08:17:28;99487.00;;;-10.43;84.85
36284;BME280;56085;48.910;9.478;2022-12-18T08:19:54;99481.06;;;-10.32;84.50
36284;BME280;56085;48.910;9.478;2022-12-18T08:22:19;99478.41;;;-10.25;84.58
36284;BME280;56085;48.910;9.478;2022-12-18T08:24:44;99476.81;;;-10.20;84.36
36284;BME280;56085;48.910;9.478;2022-12-18T08:27:09;99474.59;;;-10.09;84.91
36284;BME280;56085;48.910;9.478;2022-12-18T08:29:35;99474.44;;;-10.01;84.84
36284;BME280;56085;48.910;9.478;2022-12-18T08:32:00;99479.81;;;-9.94;84.93
36284;BME280;56085;48.910;9.478;2022-12-18T08:34:25;99478.19;;;-9.89;84.21
36284;BME280;56085;48.910;9.478;2022-12-18T08:36:50;99477.22;;;-9.81;84.44
36284;BME280;56085;48.910;9.478;2022-12-18T08:39:15;99479.31;;;-9.70;84.48
36284;BME280;56085;48.910;9.478;2022-12-18T08:41:41;99480.16;;;-9.62;84.31
36284;BME280;56085;48.910;9.478;2022-12-18T08:44:07;99482.66;;;-9.54;84.21
36284;BME280;56085;48.910;9.478;2022-12-18T08:46:51;99483.13;;;-9.44;84.27
36284;BME280;56085;48.910;9.478;2022-12-18T08:49:16;99479.00;;;-9.33;84.47
36284;BME280;56085;48.910;9.478;2022-12-18T08:51:41;99483.78;;;-9.22;84.06
36284;BME280;56085;48.910;9.478;2022-12-18T08:54:07;99473.72;;;-9.06;84.08
36284;BME280;56085;48.910;9.478;2022-12-18T08:56:32;99477.63;;;-9.02;83.82
36284;BME280;56085;48.910;9.478;2022-12-18T08:58:58;99483.81;;;-8.88;83.92
36284;BME280;56085;48.910;9.478;2022-12-18T09:01:23;99486.94;;;-8.71;83.90
36284;BME280;56085;48.910;9.478;2022-12-18T09:03:49;99483.00;;;-8.62;83.80
36284;BME280;56085;48.910;9.478;2022-12-18T09:06:15;99475.97;;;-8.50;83.31
36284;BME280;56085;48.910;9.478;2022-12-18T09:08:41;99484.19;;;-8.31;83.36
36284;BME280;56085;48.910;9.478;2022-12-18T09:11:11;99467.41;;;-8.13;83.43
36284;BME280;56085;48.910;9.478;2022-12-18T09:13:37;99469.03;;;-7.99;83.37
36284;BME280;56085;48.910;9.478;2022-12-18T09:16:03;99454.09;;;-7.81;83.25
36284;BME280;56085;48.910;9.478;2022-12-18T09:18:28;99451.56;;;-7.63;83.19
36284;BME280;56085;48.910;9.478;2022-12-18T09:20:53;99456.03;;;-7.50;82.88
36284;BME280;56085;48.910;9.478;2022-12-18T09:23:19;99455.63;;;-7.54;82.20
36284;BME280;56085;48.910;9.478;2022-12-18T09:25:44;99453.47;;;-7.31;81.66
36284;BME280;56085;48.910;9.478;2022-12-18T09:28:13;99453.94;;;-7.09;81.44
36284;BME280;56085;48.910;9.478;2022-12-18T09:30:39;99456.34;;;-7.01;80.80
36284;BME280;56085;48.910;9.478;2022-12-18T09:33:04;99452.16;;;-6.90;80.32
36284;BME280;56085;48.910;9.478;2022-12-18T09:35:29;99449.50;;;-6.72;79.65
36284;BME280;56085;48.910;9.478;2022-12-18T09:37:55;99444.25;;;-6.60;79.32
36284;BME280;56085;48.910;9.478;2022-12-18T09:40:21;99441.44;;;-6.46;78.82
36284;BME280;56085;48.910;9.478;2022-12-18T09:42:57;99446.75;;;-6.40;78.44
36284;BME280;56085;48.910;9.478;2022-12-18T09:45:24;99434.00;;;-6.07;77.81
36284;BME280;56085;48.910;9.478;2022-12-18T09:47:49;99433.56;;;-5.74;77.63
36284;BME280;56085;48.910;9.478;2022-12-18T09:50:23;99427.72;;;-5.40;77.48
36284;BME280;56085;48.910;9.478;2022-12-18T09:52:50;99429.88;;;-5.00;77.62
36284;BME280;56085;48.910;9.478;2022-12-18T09:57:51;99424.16;;;-4.68;77.20
36284;BME280;56085;48.910;9.478;2022-12-18T10:00:19;99426.88;;;-4.45;76.28
36284;BME280;56085;48.910;9.478;2022-12-18T10:02:44;99416.88;;;-4.21;76.03
36284;BME280;56085;48.910;9.478;2022-12-18T10:05:14;99414.38;;;-3.98;75.87
36284;BME280;56085;48.910;9.478;2022-12-18T10:07:47;99409.16;;;-3.76;75.47
36284;BME280;56085;48.910;9.478;2022-12-18T10:10:19;99408.16;;;-3.29;74.65
36284;BME280;56085;48.910;9.478;2022-12-18T10:16:17;99408.75;;;-3.10;73.80
36284;BME280;56085;48.910;9.478;2022-12-18T10:20:45;99401.66;;;-2.66;71.90
36284;BME280;56085;48.910;9.478;2022-12-18T10:25:40;99405.91;;;-2.14;70.69
36284;BME280;56085;48.910;9.478;2022-12-18T10:28:15;99406.94;;;-1.98;70.05
36284;BME280;56085;48.910;9.478;2022-12-18T10:30:41;99403.03;;;-1.85;70.02
36284;BME280;56085;48.910;9.478;2022-12-18T10:33:17;99419.28;;;-1.63;68.91
36284;BME280;56085;48.910;9.478;2022-12-18T10:35:43;99411.34;;;-1.47;68.30
36284;BME280;56085;48.910;9.478;2022-12-18T10:46:00;99408.00;;;-0.30;65.89
36284;BME280;56085;48.910;9.478;2022-12-18T10:48:26;99409.97;;;0.38;65.47
36284;BME280;56085;48.910;9.478;2022-12-18T10:50:52;99418.00;;;0.91;64.28
36284;BME280;56085;48.910;9.478;2022-12-18T10:53:27;99423.22;;;1.44;63.01
36284;BME280;56085;48.910;9.478;2022-12-18T10:55:54;99414.13;;;2.71;62.01
36284;BME280;56085;48.910;9.478;2022-12-18T10:58:36;99416.94;;;5.42;60.56
36284;BME280;56085;48.910;9.478;2022-12-18T11:01:06;99414.03;;;7.05;57.87
36284;BME280;56085;48.910;9.478;2022-12-18T11:03:36;99407.88;;;7.67;55.87
36284;BME280;56085;48.910;9.478;2022-12-18T11:06:09;99406.31;;;8.47;53.73
36284;BME280;56085;48.910;9.478;2022-12-18T11:08:35;99390.19;;;9.24;51.77
36284;BME280;56085;48.910;9.478;2022-12-18T11:11:01;99393.78;;;9.98;50.32
36284;BME280;56085;48.910;9.478;2022-12-18T11:13:27;99375.06;;;10.72;49.13
36284;BME280;56085;48.910;9.478;2022-12-18T11:15:54;99364.72;;;10.60;47.70
36284;BME280;56085;48.910;9.478;2022-12-18T11:18:25;99360.38;;;11.02;46.79
36284;BME280;56085;48.910;9.478;2022-12-18T11:20:54;99365.03;;;11.43;45.97
36284;BME280;56085;48.910;9.478;2022-12-18T11:23:21;99361.44;;;11.76;44.78
36284;BME280;56085;48.910;9.478;2022-12-18T11:25:53;99355.50;;;12.48;43.89
36284;BME280;56085;48.910;9.478;2022-12-18T11:33:42;99346.06;;;13.75;41.44
36284;BME280;56085;48.910;9.478;2022-12-18T11:36:09;99350.13;;;14.09;40.91
36284;BME280;56085;48.910;9.478;2022-12-18T11:38:36;99335.34;;;15.51;40.39
36284;BME280;56085;48.910;9.478;2022-12-18T11:41:04;99340.56;;;16.72;39.76
36284;BME280;56085;48.910;9.478;2022-12-18T11:43:31;99338.25;;;18.21;39.13
36284;BME280;56085;48.910;9.478;2022-12-18T11:46:09;99345.91;;;18.24;38.70
36284;BME280;56085;48.910;9.478;2022-12-18T11:48:47;99340.84;;;18.44;37.79
36284;BME280;56085;48.910;9.478;2022-12-18T11:51:16;99311.81;;;17.32;37.05
36284;BME280;56085;48.910;9.478;2022-12-18T11:53:43;99313.59;;;17.14;36.65
36284;BME280;56085;48.910;9.478;2022-12-18T11:58:47;99313.03;;;16.17;35.91
36284;BME280;56085;48.910;9.478;2022-12-18T12:01:15;99311.03;;;15.94;35.54
36284;BME280;56085;48.910;9.478;2022-12-18T12:06:32;99310.25;;;16.74;35.01
36284;BME280;56085;48.910;9.478;2022-12-18T12:09:05;99320.41;;;16.86;34.55
36284;BME280;56085;48.910;9.478;2022-12-18T12:22:24;99284.88;;;17.95;33.12
36284;BME280;56085;48.910;9.478;2022-12-18T12:37:47;99287.16;;;14.88;32.32
36284;BME280;56085;48.910;9.478;2022-12-18T12:40:17;99282.78;;;13.68;32.28
36284;BME280;56085;48.910;9.478;2022-12-18T12:43:10;99279.50;;;13.34;32.74
36284;BME280;56085;48.910;9.478;2022-12-18T12:48:04;99288.06;;;12.72;32.38
36284;BME280;56085;48.910;9.478;2022-12-18T12:50:30;99298.06;;;12.49;32.71
36284;BME280;56085;48.910;9.478;2022-12-18T12:52:57;99301.00;;;12.15;32.86
36284;BME280;56085;48.910;9.478;2022-12-18T12:55:24;99283.56;;;12.02;32.73
36284;BME280;56085;48.910;9.478;2022-12-18T13:00:18;99289.97;;;10.90;32.77
36284;BME280;56085;48.910;9.478;2022-12-18T13:05:40;99293.47;;;10.36;33.03
36284;BME280;56085;48.910;9.478;2022-12-18T13:08:09;99300.88;;;10.14;33.23
36284;BME280;56085;48.910;9.478;2022-12-18T13:10:35;99304.75;;;9.54;33.41
36284;BME280;56085;48.910;9.478;2022-12-18T13:13:08;99300.91;;;9.11;33.54
36284;BME280;56085;48.910;9.478;2022-12-18T13:18:11;99303.53;;;8.46;33.87
36284;BME280;56085;48.910;9.478;2022-12-18T13:21:38;99305.66;;;7.92;34.09
36284;BME280;56085;48.910;9.478;2022-12-18T13:23:33;99314.97;;;7.73;34.91
36284;BME280;56085;48.910;9.478;2022-12-18T13:30:59;99308.63;;;7.10;35.51
36284;BME280;56085;48.910;9.478;2022-12-18T13:35:52;99308.41;;;6.61;35.83
36284;BME280;56085;48.910;9.478;2022-12-18T13:45:50;99303.06;;;6.42;37.23
36284;BME280;56085;48.910;9.478;2022-12-18T13:48:24;99297.28;;;6.29;36.87
36284;BME280;56085;48.910;9.478;2022-12-18T13:50:57;99298.63;;;6.04;37.77
36284;BME280;56085;48.910;9.478;2022-12-18T13:53:30;99286.63;;;5.86;37.66
36284;BME280;56085;48.910;9.478;2022-12-18T13:55:57;99280.72;;;5.79;38.46
36284;BME280;56085;48.910;9.478;2022-12-18T13:58:23;99294.34;;;5.56;38.03
36284;BME280;56085;48.910;9.478;2022-12-18T14:00:48;99289.75;;;5.38;38.98
36284;BME280;56085;48.910;9.478;2022-12-18T14:03:17;99295.91;;;5.30;38.61
36284;BME280;56085;48.910;9.478;2022-12-18T14:05:44;99295.66;;;5.12;38.93
36284;BME280;56085;48.910;9.478;2022-12-18T14:08:11;99297.75;;;4.30;38.78
36284;BME280;56085;48.910;9.478;2022-12-18T14:10:45;99292.50;;;4.34;39.72
36284;BME280;56085;48.910;9.478;2022-12-18T14:13:15;99296.81;;;4.40;39.89
36284;BME280;56085;48.910;9.478;2022-12-18T14:15:41;99313.38;;;4.30;40.04
36284;BME280;56085;48.910;9.478;2022-12-18T14:20:45;99312.50;;;4.10;40.27
36284;BME280;56085;48.910;9.478;2022-12-18T14:26:26;99316.94;;;3.34;41.23
36284;BME280;56085;48.910;9.478;2022-12-18T14:28:54;99326.00;;;2.94;41.65
36284;BME280;56085;48.910;9.478;2022-12-18T14:31:21;99333.81;;;2.27;41.96
36284;BME280;56085;48.910;9.478;2022-12-18T14:33:47;99336.44;;;1.82;42.57
36284;BME280;56085;48.910;9.478;2022-12-18T14:36:14;99335.97;;;1.54;43.20
36284;BME280;56085;48.910;9.478;2022-12-18T14:38:40;99325.94;;;1.39;43.56
36284;BME280;56085;48.910;9.478;2022-12-18T14:43:32;99327.06;;;0.82;44.75